createdAt,value
2018-08-04T00:00:01.507Z,27.04
2018-08-04T00:01:01.492Z,27.04
2018-08-04T00:02:01.935Z,27.04
2018-08-04T00:03:01.515Z,27.06
2018-08-04T00:04:01.517Z,27.05
2018-08-04T00:05:01.471Z,27.05
2018-08-04T00:06:01.549Z,27.03
2018-08-04T00:07:01.640Z,27.03
2018-08-04T00:08:01.584Z,27.02
2018-08-04T00:09:01.558Z,26.97
2018-08-04T00:10:01.619Z,26.97
2018-08-04T00:11:01.568Z,26.97
2018-08-04T00:12:01.566Z,26.93
2018-08-04T00:13:01.510Z,26.91
2018-08-04T00:14:01.582Z,26.85
2018-08-04T00:15:01.542Z,26.84
2018-08-04T00:16:01.485Z,26.87
2018-08-04T00:17:01.581Z,26.83
2018-08-04T00:18:01.607Z,26.78
2018-08-04T00:19:02.098Z,26.78
2018-08-04T00:20:01.512Z,26.73
2018-08-04T00:21:01.592Z,26.71
2018-08-04T00:22:01.884Z,26.74
2018-08-04T00:23:01.510Z,26.7
2018-08-04T00:24:01.550Z,26.7
2018-08-04T00:25:01.557Z,26.62
2018-08-04T00:26:01.622Z,26.61
2018-08-04T00:27:01.506Z,26.53
2018-08-04T00:28:01.665Z,26.47
2018-08-04T00:29:01.551Z,26.47
2018-08-04T00:30:01.555Z,26.48
2018-08-04T00:31:01.696Z,26.5
2018-08-04T00:32:01.552Z,26.49
2018-08-04T00:33:01.569Z,26.48
2018-08-04T00:34:01.552Z,26.42
2018-08-04T00:35:01.867Z,26.42
2018-08-04T00:36:01.556Z,26.37
2018-08-04T00:37:01.532Z,26.35
2018-08-04T00:38:01.594Z,26.35
2018-08-04T00:39:01.995Z,26.34
2018-08-04T00:40:01.593Z,26.27
2018-08-04T00:41:01.634Z,26.29
2018-08-04T00:42:01.669Z,26.29
2018-08-04T00:43:01.533Z,26.27
2018-08-04T00:44:01.655Z,26.21
2018-08-04T00:45:01.760Z,26.25
2018-08-04T00:46:01.630Z,26.26
2018-08-04T00:47:01.583Z,26.25
2018-08-04T00:48:01.720Z,26.26
2018-08-04T00:49:01.528Z,26.26
2018-08-04T00:50:02.306Z,26.24
2018-08-04T00:51:01.614Z,26.23
2018-08-04T00:52:01.900Z,26.22
2018-08-04T00:53:01.670Z,26.16
2018-08-04T00:54:01.551Z,26.15
2018-08-04T00:55:01.579Z,26.15
2018-08-04T00:56:01.601Z,26.12
2018-08-04T00:57:01.593Z,26.09
2018-08-04T00:58:01.661Z,26.07
2018-08-04T00:59:01.809Z,26.06
2018-08-04T01:00:01.946Z,26.06
2018-08-04T01:01:01.926Z,26.01
2018-08-04T01:02:01.693Z,26.01
2018-08-04T01:03:01.690Z,26
2018-08-04T01:04:01.580Z,26.01
2018-08-04T01:05:01.569Z,25.98
2018-08-04T01:06:01.583Z,26
2018-08-04T01:07:01.565Z,26.02
2018-08-04T01:08:01.606Z,26.05
2018-08-04T01:09:01.614Z,26.05
2018-08-04T01:10:01.589Z,26.02
2018-08-04T01:11:01.572Z,26.03
2018-08-04T01:12:01.600Z,26.04
2018-08-04T01:13:01.595Z,26.05
2018-08-04T01:14:01.625Z,26.09
2018-08-04T01:15:01.588Z,26.07
2018-08-04T01:16:01.631Z,26.08
2018-08-04T01:17:01.584Z,26.1
2018-08-04T01:18:01.596Z,26.1
2018-08-04T01:19:01.572Z,26.07
2018-08-04T01:20:01.588Z,26.08
2018-08-04T01:21:01.670Z,26.06
2018-08-04T01:22:01.591Z,26.06
2018-08-04T01:23:01.636Z,26.06
2018-08-04T01:24:01.734Z,26.06
2018-08-04T01:25:01.623Z,26.05
2018-08-04T01:26:01.626Z,26.07
2018-08-04T01:27:01.816Z,26.06
2018-08-04T01:28:01.659Z,26.06
2018-08-04T01:29:01.625Z,26.05
2018-08-04T01:30:01.803Z,26.03
2018-08-04T01:31:01.677Z,26.02
2018-08-04T01:32:01.790Z,26.05
2018-08-04T01:33:01.868Z,26.05
2018-08-04T01:34:02.087Z,26.05
2018-08-04T01:35:01.677Z,26.05
2018-08-04T01:36:01.624Z,26.05
2018-08-04T01:37:02.112Z,26.06
2018-08-04T01:38:01.632Z,26.07
2018-08-04T01:39:01.827Z,26.04
2018-08-04T01:40:01.636Z,26.02
2018-08-04T01:41:01.752Z,26.01
2018-08-04T01:42:02.325Z,25.99
2018-08-04T01:43:01.643Z,25.97
2018-08-04T01:44:01.789Z,25.94
2018-08-04T01:45:01.717Z,25.92
2018-08-04T01:46:01.703Z,25.92
2018-08-04T01:47:01.614Z,25.94
2018-08-04T01:48:01.771Z,25.94
2018-08-04T01:49:01.668Z,25.93
2018-08-04T01:50:01.641Z,25.93
2018-08-04T01:51:01.795Z,25.94
2018-08-04T01:52:01.640Z,25.96
2018-08-04T01:53:01.636Z,25.94
2018-08-04T01:54:01.633Z,25.94
2018-08-04T01:55:01.793Z,25.88
2018-08-04T01:56:01.619Z,25.9
2018-08-04T01:57:01.747Z,25.87
2018-08-04T01:58:01.672Z,25.83
2018-08-04T01:59:02.116Z,25.82
2018-08-04T02:00:01.768Z,25.78
2018-08-04T02:01:01.677Z,25.75
2018-08-04T02:02:01.653Z,25.72
2018-08-04T02:03:01.665Z,25.71
2018-08-04T02:04:01.695Z,25.71
2018-08-04T02:05:02.028Z,25.69
2018-08-04T02:06:01.678Z,25.7
2018-08-04T02:07:01.640Z,25.68
2018-08-04T02:08:01.662Z,25.69
2018-08-04T02:09:01.783Z,25.67
2018-08-04T02:10:01.696Z,25.67
2018-08-04T02:11:01.687Z,25.64
2018-08-04T02:12:01.850Z,25.64
2018-08-04T02:13:01.660Z,25.63
2018-08-04T02:14:01.697Z,25.63
2018-08-04T02:15:01.698Z,25.61
2018-08-04T02:16:01.718Z,25.61
2018-08-04T02:17:01.958Z,25.59
2018-08-04T02:18:01.704Z,25.55
2018-08-04T02:19:01.685Z,25.54
2018-08-04T02:20:01.671Z,25.54
2018-08-04T02:21:01.715Z,25.53
2018-08-04T02:22:01.661Z,25.5
2018-08-04T02:23:01.667Z,25.49
2018-08-04T02:24:01.686Z,25.5
2018-08-04T02:25:01.688Z,25.47
2018-08-04T02:26:01.716Z,25.49
2018-08-04T02:27:01.730Z,25.45
2018-08-04T02:28:01.666Z,25.45
2018-08-04T02:29:01.676Z,25.44
2018-08-04T02:30:01.707Z,25.44
2018-08-04T02:31:01.672Z,25.48
2018-08-04T02:32:01.722Z,25.47
2018-08-04T02:33:01.761Z,25.46
2018-08-04T02:34:01.698Z,25.45
2018-08-04T02:35:01.740Z,25.45
2018-08-04T02:36:01.713Z,25.44
2018-08-04T02:37:01.756Z,25.44
2018-08-04T02:38:01.703Z,25.43
2018-08-04T02:39:01.745Z,25.41
2018-08-04T02:40:01.702Z,25.39
2018-08-04T02:41:01.718Z,25.4
2018-08-04T02:42:01.963Z,25.37
2018-08-04T02:43:01.711Z,25.37
2018-08-04T02:44:01.732Z,25.37
2018-08-04T02:45:01.955Z,25.36
2018-08-04T02:46:01.948Z,25.34
2018-08-04T02:47:01.741Z,25.35
2018-08-04T02:48:01.792Z,25.33
2018-08-04T02:49:01.855Z,25.34
2018-08-04T02:50:01.816Z,25.31
2018-08-04T02:51:01.708Z,25.29
2018-08-04T02:52:01.970Z,25.28
2018-08-04T02:53:01.741Z,25.28
2018-08-04T02:54:01.746Z,25.29
2018-08-04T02:55:01.932Z,25.27
2018-08-04T02:56:01.847Z,25.25
2018-08-04T02:57:01.799Z,25.19
2018-08-04T02:58:01.797Z,25.19
2018-08-04T02:59:01.771Z,25.16
2018-08-04T03:00:01.848Z,25.16
2018-08-04T03:01:01.926Z,25.16
2018-08-04T03:02:01.777Z,25.14
2018-08-04T03:03:01.730Z,25.1
2018-08-04T03:04:01.950Z,25.08
2018-08-04T03:05:01.899Z,25.07
2018-08-04T03:06:01.796Z,25.07
2018-08-04T03:07:01.739Z,25.06
2018-08-04T03:08:01.754Z,25.06
2018-08-04T03:09:02.109Z,25.05
2018-08-04T03:10:01.913Z,25.04
2018-08-04T03:11:01.776Z,25.02
2018-08-04T03:12:01.884Z,25.01
2018-08-04T03:13:01.779Z,25.03
2018-08-04T03:14:01.959Z,25.02
2018-08-04T03:15:01.885Z,25.01
2018-08-04T03:16:01.757Z,24.99
2018-08-04T03:17:01.760Z,24.98
2018-08-04T03:18:01.764Z,24.92
2018-08-04T03:19:01.935Z,24.91
2018-08-04T03:20:01.852Z,24.91
2018-08-04T03:21:01.755Z,24.9
2018-08-04T03:22:01.767Z,24.88
2018-08-04T03:23:01.770Z,24.87
2018-08-04T03:24:01.792Z,24.87
2018-08-04T03:25:01.902Z,24.88
2018-08-04T03:26:01.814Z,24.88
2018-08-04T03:27:01.785Z,24.86
2018-08-04T03:28:01.838Z,24.85
2018-08-04T03:29:01.794Z,24.86
2018-08-04T03:30:02.025Z,24.85
2018-08-04T03:31:01.809Z,24.82
2018-08-04T03:32:02.068Z,24.82
2018-08-04T03:33:01.814Z,24.81
2018-08-04T03:34:01.855Z,24.81
2018-08-04T03:35:01.820Z,24.81
2018-08-04T03:36:01.980Z,24.8
2018-08-04T03:37:01.777Z,24.81
2018-08-04T03:38:01.788Z,24.8
2018-08-04T03:39:01.834Z,24.8
2018-08-04T03:40:01.786Z,24.76
2018-08-04T03:41:01.780Z,24.78
2018-08-04T03:42:01.786Z,24.75
2018-08-04T03:43:01.819Z,24.75
2018-08-04T03:44:01.812Z,24.75
2018-08-04T03:45:01.820Z,24.75
2018-08-04T03:46:01.818Z,24.73
2018-08-04T03:47:01.794Z,24.72
2018-08-04T03:48:01.790Z,24.71
2018-08-04T03:49:01.814Z,24.7
2018-08-04T03:50:01.837Z,24.7
2018-08-04T03:51:01.858Z,24.68
2018-08-04T03:52:01.849Z,24.68
2018-08-04T03:53:01.793Z,24.67
2018-08-04T03:54:01.803Z,24.66
2018-08-04T03:55:01.812Z,24.65
2018-08-04T03:56:01.816Z,24.64
2018-08-04T03:57:02.269Z,24.63
2018-08-04T03:58:01.991Z,24.62
2018-08-04T03:59:01.794Z,24.6
2018-08-04T04:00:02.015Z,24.59
2018-08-04T04:01:01.802Z,24.55
2018-08-04T04:02:01.851Z,24.54
2018-08-04T04:03:01.868Z,24.49
2018-08-04T04:04:01.893Z,24.5
2018-08-04T04:05:01.799Z,24.47
2018-08-04T04:06:01.799Z,24.47
2018-08-04T04:07:01.824Z,24.46
2018-08-04T04:08:01.866Z,24.46
2018-08-04T04:09:01.878Z,24.45
2018-08-04T04:10:01.816Z,24.45
2018-08-04T04:11:02.003Z,24.46
2018-08-04T04:12:01.920Z,24.48
2018-08-04T04:13:01.914Z,24.47
2018-08-04T04:14:01.857Z,24.49
2018-08-04T04:15:01.871Z,24.51
2018-08-04T04:16:01.922Z,24.53
2018-08-04T04:17:01.887Z,24.53
2018-08-04T04:18:01.914Z,24.54
2018-08-04T04:19:01.966Z,24.47
2018-08-04T04:20:01.893Z,24.46
2018-08-04T04:21:02.189Z,24.43
2018-08-04T04:22:01.879Z,24.45
2018-08-04T04:23:01.887Z,24.41
2018-08-04T04:24:01.985Z,24.41
2018-08-04T04:25:01.855Z,24.42
2018-08-04T04:26:01.878Z,24.41
2018-08-04T04:27:01.891Z,24.38
2018-08-04T04:28:01.821Z,24.37
2018-08-04T04:29:01.844Z,24.39
2018-08-04T04:30:01.869Z,24.37
2018-08-04T04:31:01.868Z,24.39
2018-08-04T04:32:01.838Z,24.4
2018-08-04T04:33:02.077Z,24.39
2018-08-04T04:34:01.982Z,24.4
2018-08-04T04:35:01.849Z,24.4
2018-08-04T04:36:01.947Z,24.43
2018-08-04T04:37:01.947Z,24.44
2018-08-04T04:38:01.947Z,24.46
2018-08-04T04:39:02.172Z,24.45
2018-08-04T04:40:01.864Z,24.44
2018-08-04T04:41:02.102Z,24.45
2018-08-04T04:42:01.820Z,24.39
2018-08-04T04:43:02.043Z,24.37
2018-08-04T04:44:02.073Z,24.36
2018-08-04T04:45:02.249Z,24.38
2018-08-04T04:46:02.119Z,24.4
2018-08-04T04:47:01.896Z,24.39
2018-08-04T04:48:01.935Z,24.4
2018-08-04T04:49:02.089Z,24.44
2018-08-04T04:50:02.149Z,24.44
2018-08-04T04:51:02.109Z,24.45
2018-08-04T04:52:01.903Z,24.42
2018-08-04T04:53:01.888Z,24.4
2018-08-04T04:54:01.878Z,24.43
2018-08-04T04:55:01.867Z,24.42
2018-08-04T04:56:01.882Z,24.41
2018-08-04T04:57:01.906Z,24.45
2018-08-04T04:58:01.913Z,24.46
2018-08-04T04:59:01.956Z,24.46
2018-08-04T05:00:01.894Z,24.5
2018-08-04T05:01:01.929Z,24.49
2018-08-04T05:02:02.514Z,24.51
2018-08-04T05:03:01.894Z,24.51
2018-08-04T05:04:01.913Z,24.51
2018-08-04T05:05:01.958Z,24.55
2018-08-04T05:06:01.896Z,24.52
2018-08-04T05:07:02.088Z,24.51
2018-08-04T05:08:01.918Z,24.55
2018-08-04T05:09:01.908Z,24.56
2018-08-04T05:10:01.912Z,24.58
2018-08-04T05:11:01.884Z,24.62
2018-08-04T05:12:01.905Z,24.62
2018-08-04T05:13:02.140Z,24.63
2018-08-04T05:14:01.921Z,24.63
2018-08-04T05:15:01.909Z,24.66
2018-08-04T05:16:01.878Z,24.69
2018-08-04T05:17:01.939Z,24.7
2018-08-04T05:18:01.898Z,24.7
2018-08-04T05:19:02.055Z,24.7
2018-08-04T05:20:01.934Z,24.7
2018-08-04T05:21:01.938Z,24.7
2018-08-04T05:22:01.901Z,24.74
2018-08-04T05:23:01.907Z,24.75
2018-08-04T05:24:02.141Z,24.75
2018-08-04T05:25:01.906Z,24.77
2018-08-04T05:26:01.910Z,24.78
2018-08-04T05:27:01.993Z,24.83
2018-08-04T05:28:01.989Z,24.83
2018-08-04T05:29:02.139Z,24.83
2018-08-04T05:30:02.001Z,24.86
2018-08-04T05:31:02.264Z,24.87
2018-08-04T05:32:02.638Z,24.85
2018-08-04T05:33:01.945Z,24.85
2018-08-04T05:34:01.947Z,24.87
2018-08-04T05:35:01.946Z,24.88
2018-08-04T05:36:01.915Z,24.89
2018-08-04T05:37:02.121Z,24.92
2018-08-04T05:38:01.954Z,24.94
2018-08-04T05:39:01.987Z,24.95
2018-08-04T05:40:01.949Z,24.99
2018-08-04T05:41:01.931Z,24.99
2018-08-04T05:42:02.120Z,25
2018-08-04T05:43:02.250Z,25.02
2018-08-04T05:44:02.075Z,25.06
2018-08-04T05:45:02.130Z,25.08
2018-08-04T05:46:01.965Z,25.11
2018-08-04T05:47:02.024Z,25.13
2018-08-04T05:48:02.023Z,25.17
2018-08-04T05:49:01.986Z,25.18
2018-08-04T05:50:02.915Z,25.2
2018-08-04T05:51:01.928Z,25.23
2018-08-04T05:52:02.142Z,25.2
2018-08-04T05:53:02.014Z,25.23
2018-08-04T05:54:01.985Z,25.27
2018-08-04T05:55:01.984Z,25.27
2018-08-04T05:56:02.260Z,25.31
2018-08-04T05:57:01.965Z,25.32
2018-08-04T05:58:02.585Z,25.33
2018-08-04T05:59:02.144Z,25.35
2018-08-04T06:00:02.017Z,25.37
2018-08-04T06:01:02.009Z,25.39
2018-08-04T06:02:02.579Z,25.4
2018-08-04T06:03:01.944Z,25.42
2018-08-04T06:04:01.962Z,25.44
2018-08-04T06:05:02.091Z,25.47
2018-08-04T06:06:01.968Z,25.46
2018-08-04T06:07:01.961Z,25.48
2018-08-04T06:08:01.998Z,25.5
2018-08-04T06:09:01.948Z,25.51
2018-08-04T06:10:01.976Z,25.53
2018-08-04T06:11:02.037Z,25.53
2018-08-04T06:12:01.985Z,25.57
2018-08-04T06:13:01.964Z,25.58
2018-08-04T06:14:02.021Z,25.61
2018-08-04T06:15:02.035Z,25.63
2018-08-04T06:16:01.979Z,25.65
2018-08-04T06:17:01.959Z,25.66
2018-08-04T06:18:01.974Z,25.67
2018-08-04T06:19:01.971Z,25.66
2018-08-04T06:20:01.998Z,25.65
2018-08-04T06:21:02.041Z,25.67
2018-08-04T06:22:02.395Z,25.69
2018-08-04T06:23:02.009Z,25.68
2018-08-04T06:24:02.160Z,25.7
2018-08-04T06:25:02.208Z,25.74
2018-08-04T06:26:01.999Z,25.75
2018-08-04T06:27:01.959Z,25.77
2018-08-04T06:28:02.016Z,25.8
2018-08-04T06:29:01.966Z,25.8
2018-08-04T06:30:02.412Z,25.82
2018-08-04T06:31:02.302Z,25.82
2018-08-04T06:32:01.993Z,25.84
2018-08-04T06:33:01.989Z,25.87
2018-08-04T06:34:01.982Z,25.89
2018-08-04T06:35:02.144Z,25.9
2018-08-04T06:36:02.293Z,25.94
2018-08-04T06:37:02.078Z,25.99
2018-08-04T06:38:02.149Z,26.01
2018-08-04T06:39:02.219Z,26.02
2018-08-04T06:40:02.154Z,26.07
2018-08-04T06:41:02.119Z,26.09
2018-08-04T06:42:02.137Z,26.13
2018-08-04T06:43:02.144Z,26.14
2018-08-04T06:44:02.043Z,26.18
2018-08-04T06:45:02.140Z,26.2
2018-08-04T06:46:02.125Z,26.22
2018-08-04T06:47:02.025Z,26.22
2018-08-04T06:48:02.095Z,26.24
2018-08-04T06:49:02.022Z,26.26
2018-08-04T06:50:02.073Z,26.27
2018-08-04T06:51:02.134Z,26.32
2018-08-04T06:52:02.076Z,26.32
2018-08-04T06:53:02.368Z,26.34
2018-08-04T06:54:02.188Z,26.38
2018-08-04T06:55:02.145Z,26.4
2018-08-04T06:56:02.162Z,26.43
2018-08-04T06:57:02.159Z,26.44
2018-08-04T06:58:02.224Z,26.46
2018-08-04T06:59:02.091Z,26.46
2018-08-04T07:00:02.255Z,26.48
2018-08-04T07:01:02.376Z,26.5
2018-08-04T07:02:02.117Z,26.48
2018-08-04T07:03:02.067Z,26.49
2018-08-04T07:04:02.326Z,26.5
2018-08-04T07:05:02.083Z,26.52
2018-08-04T07:06:02.052Z,26.52
2018-08-04T07:07:02.115Z,26.55
2018-08-04T07:08:02.036Z,26.57
2018-08-04T07:09:02.427Z,26.62
2018-08-04T07:10:02.090Z,26.64
2018-08-04T07:11:02.111Z,26.69
2018-08-04T07:12:03.644Z,26.71
2018-08-04T07:13:02.865Z,26.76
2018-08-04T07:14:02.057Z,26.81
2018-08-04T07:15:02.229Z,26.82
2018-08-04T07:16:02.093Z,26.85
2018-08-04T07:17:02.063Z,26.89
2018-08-04T07:18:02.161Z,26.93
2018-08-04T07:19:02.100Z,26.96
2018-08-04T07:20:02.158Z,26.96
2018-08-04T07:21:02.140Z,26.99
2018-08-04T07:22:02.092Z,27
2018-08-04T07:23:02.796Z,27.05
2018-08-04T07:24:02.145Z,27.08
2018-08-04T07:25:02.106Z,27.12
2018-08-04T07:26:02.090Z,27.15
2018-08-04T07:27:02.104Z,27.15
2018-08-04T07:28:02.050Z,27.18
2018-08-04T07:29:03.101Z,27.21
2018-08-04T07:30:02.127Z,27.25
2018-08-04T07:31:02.080Z,27.28
2018-08-04T07:32:02.121Z,27.33
2018-08-04T07:33:02.083Z,27.36
2018-08-04T07:34:02.092Z,27.36
2018-08-04T07:35:02.109Z,27.34
2018-08-04T07:36:02.125Z,27.37
2018-08-04T07:37:02.099Z,27.35
2018-08-04T07:38:02.144Z,27.36
2018-08-04T07:39:02.113Z,27.38
2018-08-04T07:40:02.112Z,27.42
2018-08-04T07:41:02.853Z,27.48
2018-08-04T07:42:02.150Z,27.49
2018-08-04T07:43:02.103Z,27.5
2018-08-04T07:44:02.137Z,27.52
2018-08-04T07:45:02.100Z,27.51
2018-08-04T07:46:02.117Z,27.52
2018-08-04T07:47:02.266Z,27.56
2018-08-04T07:48:02.091Z,27.59
2018-08-04T07:49:02.712Z,27.64
2018-08-04T07:50:02.350Z,27.72
2018-08-04T07:51:02.155Z,27.75
2018-08-04T07:52:02.198Z,27.8
2018-08-04T07:53:02.126Z,27.82
2018-08-04T07:54:02.464Z,27.86
2018-08-04T07:55:02.130Z,27.87
2018-08-04T07:56:02.102Z,27.92
2018-08-04T07:57:02.106Z,27.95
2018-08-04T07:58:02.145Z,28
2018-08-04T07:59:02.134Z,28.05
2018-08-04T08:00:02.159Z,28.05
2018-08-04T08:01:02.132Z,28.05
2018-08-04T08:02:02.179Z,28.04
2018-08-04T08:03:02.169Z,28.05
2018-08-04T08:04:02.143Z,28.1
2018-08-04T08:05:02.812Z,28.13
2018-08-04T08:06:02.111Z,28.17
2018-08-04T08:07:02.348Z,28.2
2018-08-04T08:08:02.173Z,28.27
2018-08-04T08:09:02.196Z,28.31
2018-08-04T08:10:02.131Z,28.38
2018-08-04T08:11:03.057Z,28.43
2018-08-04T08:12:02.146Z,28.49
2018-08-04T08:13:02.190Z,28.56
2018-08-04T08:14:02.147Z,28.57
2018-08-04T08:15:02.232Z,28.65
2018-08-04T08:16:02.313Z,28.69
2018-08-04T08:17:02.157Z,28.77
2018-08-04T08:18:02.156Z,28.84
2018-08-04T08:19:02.106Z,28.88
2018-08-04T08:20:02.334Z,28.97
2018-08-04T08:21:02.587Z,29.04
2018-08-04T08:22:02.141Z,29.09
2018-08-04T08:23:02.725Z,29.18
2018-08-04T08:24:02.300Z,29.23
2018-08-04T08:25:02.154Z,29.3
2018-08-04T08:26:02.151Z,29.31
2018-08-04T08:27:04.865Z,29.33
2018-08-04T08:28:02.220Z,29.38
2018-08-04T08:29:02.343Z,29.39
2018-08-04T08:30:02.151Z,29.45
2018-08-04T08:31:02.145Z,29.49
2018-08-04T08:32:02.190Z,29.5
2018-08-04T08:33:02.159Z,29.51
2018-08-04T08:34:02.165Z,29.55
2018-08-04T08:35:02.163Z,29.57
2018-08-04T08:36:02.148Z,29.59
2018-08-04T08:37:02.203Z,29.65
2018-08-04T08:38:02.429Z,29.66
2018-08-04T08:39:02.153Z,29.71
2018-08-04T08:40:02.177Z,29.74
2018-08-04T08:41:02.191Z,29.82
2018-08-04T08:42:02.221Z,29.84
2018-08-04T08:43:02.143Z,29.86
2018-08-04T08:44:02.177Z,29.85
2018-08-04T08:45:02.168Z,29.81
2018-08-04T08:46:02.207Z,29.84
2018-08-04T08:47:02.589Z,29.9
2018-08-04T08:48:02.194Z,29.94
2018-08-04T08:49:02.246Z,29.99
2018-08-04T08:50:02.637Z,30.03
2018-08-04T08:51:02.198Z,30.09
2018-08-04T08:52:02.203Z,30.11
2018-08-04T08:53:02.909Z,30.16
2018-08-04T08:54:04.719Z,30.21
2018-08-04T08:55:02.235Z,30.28
2018-08-04T08:56:02.212Z,30.34
2018-08-04T08:57:02.212Z,30.38
2018-08-04T08:58:02.198Z,30.4
2018-08-04T08:59:02.234Z,30.41
2018-08-04T09:00:02.225Z,30.44
2018-08-04T09:01:02.237Z,30.45
2018-08-04T09:02:02.213Z,30.47
2018-08-04T09:03:02.252Z,30.54
2018-08-04T09:04:02.226Z,30.55
2018-08-04T09:05:02.439Z,30.6
2018-08-04T09:06:02.214Z,30.63
2018-08-04T09:07:02.198Z,30.66
2018-08-04T09:08:02.184Z,30.7
2018-08-04T09:09:02.191Z,30.71
2018-08-04T09:10:02.243Z,30.76
2018-08-04T09:11:02.247Z,30.79
2018-08-04T09:12:02.333Z,30.81
2018-08-04T09:13:02.350Z,30.83
2018-08-04T09:14:02.207Z,30.86
2018-08-04T09:15:02.240Z,30.88
2018-08-04T09:16:02.241Z,30.92
2018-08-04T09:17:02.321Z,30.94
2018-08-04T09:18:02.269Z,30.97
2018-08-04T09:19:02.285Z,30.97
2018-08-04T09:20:02.241Z,30.99
2018-08-04T09:21:02.220Z,31.05
2018-08-04T09:22:02.355Z,31.12
2018-08-04T09:23:02.731Z,31.13
2018-08-04T09:24:02.383Z,31.23
2018-08-04T09:25:02.209Z,31.29
2018-08-04T09:26:02.307Z,31.26
2018-08-04T09:27:02.345Z,31.3
2018-08-04T09:28:02.414Z,31.37
2018-08-04T09:29:02.244Z,31.32
2018-08-04T09:30:02.258Z,31.29
2018-08-04T09:31:02.329Z,31.28
2018-08-04T09:32:02.317Z,31.3
2018-08-04T09:33:02.226Z,31.47
2018-08-04T09:34:02.292Z,31.48
2018-08-04T09:35:02.240Z,31.48
2018-08-04T09:36:02.221Z,31.48
2018-08-04T09:37:02.309Z,31.54
2018-08-04T09:38:02.533Z,31.61
2018-08-04T09:39:02.705Z,31.69
2018-08-04T09:40:02.238Z,31.82
2018-08-04T09:41:02.459Z,31.78
2018-08-04T09:42:02.466Z,31.87
2018-08-04T09:43:02.250Z,31.99
2018-08-04T09:44:02.265Z,32.14
2018-08-04T09:45:02.294Z,32.18
2018-08-04T09:46:02.371Z,32.19
2018-08-04T09:47:02.862Z,32.15
2018-08-04T09:48:02.476Z,32.15
2018-08-04T09:49:02.244Z,32.19
2018-08-04T09:50:02.491Z,32.14
2018-08-04T09:51:02.234Z,32.18
2018-08-04T09:52:03.230Z,32.12
2018-08-04T09:53:02.275Z,32.23
2018-08-04T09:54:02.252Z,32.31
2018-08-04T09:55:02.346Z,32.28
2018-08-04T09:56:02.280Z,32.25
2018-08-04T09:57:02.281Z,32.37
2018-08-04T09:58:02.278Z,32.38
2018-08-04T09:59:02.295Z,32.42
2018-08-04T10:00:02.257Z,32.44
2018-08-04T10:01:02.319Z,32.44
2018-08-04T10:02:02.275Z,32.42
2018-08-04T10:03:02.357Z,32.44
2018-08-04T10:04:02.389Z,32.43
2018-08-04T10:05:04.886Z,32.37
2018-08-04T10:06:02.372Z,32.36
2018-08-04T10:07:02.424Z,32.43
2018-08-04T10:08:02.292Z,32.42
2018-08-04T10:09:02.297Z,32.47
2018-08-04T10:10:02.337Z,32.51
2018-08-04T10:11:02.283Z,32.53
2018-08-04T10:12:02.282Z,32.57
2018-08-04T10:13:02.338Z,32.64
2018-08-04T10:14:02.303Z,32.61
2018-08-04T10:15:02.420Z,32.61
2018-08-04T10:16:02.339Z,32.59
2018-08-04T10:17:02.309Z,32.64
2018-08-04T10:18:02.287Z,32.71
2018-08-04T10:19:02.350Z,32.76
2018-08-04T10:20:02.349Z,32.86
2018-08-04T10:21:02.336Z,32.81
2018-08-04T10:22:02.347Z,32.84
2018-08-04T10:23:02.307Z,32.94
2018-08-04T10:24:02.449Z,32.87
2018-08-04T10:25:02.370Z,32.85
2018-08-04T10:26:03.005Z,32.85
2018-08-04T10:27:02.473Z,32.85
2018-08-04T10:28:02.465Z,32.75
2018-08-04T10:29:02.341Z,32.77
2018-08-04T10:30:02.348Z,32.84
2018-08-04T10:31:02.919Z,32.87
2018-08-04T10:32:04.097Z,33.01
2018-08-04T10:33:02.359Z,33.02
2018-08-04T10:34:02.393Z,33.18
2018-08-04T10:35:02.617Z,33.36
2018-08-04T10:36:02.487Z,33.31
2018-08-04T10:37:02.396Z,33.28
2018-08-04T10:38:03.380Z,33.31
2018-08-04T10:39:02.326Z,33.33
2018-08-04T10:40:02.524Z,33.38
2018-08-04T10:41:02.683Z,33.37
2018-08-04T10:42:03.364Z,33.42
2018-08-04T10:43:02.455Z,33.57
2018-08-04T10:44:07.495Z,33.71
2018-08-04T10:45:02.574Z,33.86
2018-08-04T10:46:02.397Z,33.83
2018-08-04T10:47:02.353Z,33.77
2018-08-04T10:48:02.445Z,33.79
2018-08-04T10:49:02.397Z,33.79
2018-08-04T10:50:02.553Z,33.77
2018-08-04T10:51:02.560Z,33.75
2018-08-04T10:52:02.439Z,33.65
2018-08-04T10:53:02.387Z,33.68
2018-08-04T10:54:02.393Z,33.69
2018-08-04T10:55:02.426Z,33.69
2018-08-04T10:56:02.369Z,33.73
2018-08-04T10:57:02.802Z,33.58
2018-08-04T10:58:02.378Z,33.51
2018-08-04T10:59:02.365Z,33.6
2018-08-04T11:00:02.382Z,33.58
2018-08-04T11:01:02.530Z,33.61
2018-08-04T11:02:02.367Z,33.61
2018-08-04T11:03:02.335Z,33.62
2018-08-04T11:04:02.546Z,33.62
2018-08-04T11:05:02.366Z,33.64
2018-08-04T11:06:02.496Z,33.77
2018-08-04T11:07:02.535Z,33.93
2018-08-04T11:08:02.471Z,33.88
2018-08-04T11:09:02.535Z,33.84
2018-08-04T11:10:02.662Z,33.88
2018-08-04T11:11:02.391Z,33.9
2018-08-04T11:12:02.442Z,33.96
2018-08-04T11:13:02.578Z,33.96
2018-08-04T11:14:02.924Z,34.05
2018-08-04T11:15:02.787Z,34.14
2018-08-04T11:16:02.485Z,34.13
2018-08-04T11:17:02.444Z,34.12
2018-08-04T11:18:02.907Z,34.21
2018-08-04T11:19:02.592Z,34.11
2018-08-04T11:20:03.551Z,34.05
2018-08-04T11:21:02.435Z,34.05
2018-08-04T11:22:03.815Z,34.08
2018-08-04T11:23:04.595Z,34.1
2018-08-04T11:24:02.922Z,34.23
2018-08-04T11:25:02.530Z,34.25
2018-08-04T11:26:02.446Z,34.28
2018-08-04T11:27:02.468Z,34.27
2018-08-04T11:28:02.548Z,34.37
2018-08-04T11:29:02.582Z,34.36
2018-08-04T11:30:02.563Z,34.43
2018-08-04T11:31:02.597Z,34.45
2018-08-04T11:32:02.570Z,34.5
2018-08-04T11:33:02.584Z,34.56
2018-08-04T11:34:02.496Z,34.56
2018-08-04T11:35:02.504Z,34.51
2018-08-04T11:36:02.513Z,34.45
2018-08-04T11:37:03.566Z,34.41
2018-08-04T11:38:02.630Z,34.34
2018-08-04T11:39:02.947Z,34.25
2018-08-04T11:40:02.663Z,34.22
2018-08-04T11:41:02.535Z,34.13
2018-08-04T11:42:02.544Z,34.08
2018-08-04T11:43:02.556Z,33.98
2018-08-04T11:44:02.554Z,33.99
2018-08-04T11:45:02.682Z,34.02
2018-08-04T11:46:02.568Z,34.03
2018-08-04T11:47:02.599Z,33.97
2018-08-04T11:48:02.803Z,33.93
2018-08-04T11:49:02.587Z,33.9
2018-08-04T11:50:02.630Z,33.87
2018-08-04T11:51:02.458Z,33.87
2018-08-04T11:52:02.616Z,33.88
2018-08-04T11:53:02.536Z,33.87
2018-08-04T11:54:02.536Z,33.9
2018-08-04T11:55:02.636Z,33.92
2018-08-04T11:56:03.596Z,33.88
2018-08-04T11:57:02.471Z,33.79
2018-08-04T11:58:02.545Z,33.79
2018-08-04T11:59:02.493Z,33.79
2018-08-04T12:00:02.493Z,33.78
2018-08-04T12:01:02.598Z,33.79
2018-08-04T12:02:03.350Z,33.84
2018-08-04T12:03:02.467Z,33.8
2018-08-04T12:04:02.612Z,33.83
2018-08-04T12:05:02.529Z,33.84
2018-08-04T12:06:02.465Z,33.88
2018-08-04T12:07:02.619Z,33.93
2018-08-04T12:08:02.459Z,33.99
2018-08-04T12:09:02.534Z,34.02
2018-08-04T12:10:02.562Z,34.11
2018-08-04T12:11:02.899Z,34.18
2018-08-04T12:12:02.523Z,34.25
2018-08-04T12:13:02.679Z,34.32
2018-08-04T12:14:02.506Z,34.4
2018-08-04T12:15:02.642Z,34.48
2018-08-04T12:16:02.597Z,34.53
2018-08-04T12:17:02.527Z,34.6
2018-08-04T12:18:02.976Z,34.64
2018-08-04T12:19:02.596Z,34.68
2018-08-04T12:20:03.850Z,34.74
2018-08-04T12:21:03.201Z,34.77
2018-08-04T12:22:02.543Z,34.92
2018-08-04T12:23:02.480Z,34.94
2018-08-04T12:24:02.514Z,35.03
2018-08-04T12:25:02.695Z,35.03
2018-08-04T12:26:02.537Z,35.08
2018-08-04T12:27:02.604Z,35.11
2018-08-04T12:28:03.681Z,35.16
2018-08-04T12:29:02.530Z,35.19
2018-08-04T12:30:02.708Z,35.22
2018-08-04T12:31:02.585Z,35.22
2018-08-04T12:32:02.594Z,35.26
2018-08-04T12:33:02.641Z,35.27
2018-08-04T12:34:02.599Z,35.28
2018-08-04T12:35:02.470Z,35.29
2018-08-04T12:36:02.475Z,35.37
2018-08-04T12:37:02.634Z,35.22
2018-08-04T12:38:02.491Z,35.22
2018-08-04T12:39:02.476Z,35.22
2018-08-04T12:40:02.639Z,35.25
2018-08-04T12:41:02.639Z,35.32
2018-08-04T12:42:02.523Z,35.34
2018-08-04T12:43:02.575Z,35.33
2018-08-04T12:44:02.554Z,35.36
2018-08-04T12:45:02.496Z,35.29
2018-08-04T12:46:02.686Z,35.2
2018-08-04T12:47:02.524Z,35.09
2018-08-04T12:48:02.533Z,35.1
2018-08-04T12:49:02.617Z,35.12
2018-08-04T12:50:02.518Z,35.16
2018-08-04T12:51:02.518Z,35.25
2018-08-04T12:52:02.633Z,35.36
2018-08-04T12:53:02.516Z,35.36
2018-08-04T12:54:02.529Z,35.39
2018-08-04T12:55:02.659Z,35.39